Time;durP1;ratioP1;P1;durP2;ratioP2;P2;SDS_P1;SDS_P2;PMS_P1;PMS_P2;Temp;Humidity;BMP_temperature;BMP_pressure;BME280_temperature;BME280_humidity;BME280_pressure;Samples;Min_cycle;Max_cycle;Signal;HPM_P1;HPM_P2
2021/09/23 00:00:16;;;;;;;70.03;41.17;;;;;;;;;;5057486;28;20044;-84
2021/09/23 00:05:11;;;;;;;71.45;40.72;;;;;;;;;;5042322;28;20045;-84
2021/09/23 00:07:40;;;;;;;69.07;40.33;;;;;;;;;;5038303;28;20046;-83
2021/09/23 00:10:08;;;;;;;72.55;41.97;;;;;;;;;;5038159;28;20045;-84
2021/09/23 00:12:35;;;;;;;68.72;40.38;;;;;;;;;;5039053;28;20357;-84
2021/09/23 00:15:06;;;;;;;71.53;39.33;;;;;;;;;;5038161;28;20133;-84
2021/09/23 00:17:32;;;;;;;72.10;40.08;;;;;;;;;;5038643;28;20077;-83
2021/09/23 00:19:59;;;;;;;75.50;41.15;;;;;;;;;;5039532;28;20049;-83
2021/09/23 00:22:27;;;;;;;80.05;41.15;;;;;;;;;;5044347;28;20055;-83
2021/09/23 00:24:53;;;;;;;73.07;40.63;;;;;;;;;;5040511;28;20049;-84
2021/09/23 00:27:20;;;;;;;67.32;39.20;;;;;;;;;;5038324;28;20057;-84
2021/09/23 00:29:47;;;;;;;66.90;39.72;;;;;;;;;;5038861;28;20448;-85
2021/09/23 00:32:15;;;;;;;68.03;40.97;;;;;;;;;;5038637;28;20053;-84
2021/09/23 00:34:41;;;;;;;79.05;38.25;;;;;;;;;;5038387;28;20053;-84
2021/09/23 00:37:08;;;;;;;70.18;39.33;;;;;;;;;;5038736;28;20060;-83
2021/09/23 00:39:35;;;;;;;68.28;39.75;;;;;;;;;;5039192;28;20140;-84
2021/09/23 00:42:07;;;;;;;70.80;38.05;;;;;;;;;;5043863;28;20238;-84
2021/09/23 00:44:35;;;;;;;67.78;38.53;;;;;;;;;;5046622;28;20046;-84
2021/09/23 00:47:02;;;;;;;67.35;38.72;;;;;;;;;;5045118;28;20049;-84
2021/09/23 00:49:32;;;;;;;71.85;38.83;;;;;;;;;;5048093;28;20077;-83
2021/09/23 00:51:58;;;;;;;72.30;39.08;;;;;;;;;;5053362;28;20041;-84
2021/09/23 00:54:25;;;;;;;72.00;37.85;;;;;;;;;;5054295;28;20053;-84
2021/09/23 00:56:52;;;;;;;61.35;37.05;;;;;;;;;;5041258;28;20140;-84
2021/09/23 00:59:18;;;;;;;62.97;37.53;;;;;;;;;;5051681;28;20101;-84
2021/09/23 01:01:45;;;;;;;72.60;41.67;;;;;;;;;;5049152;28;20049;-84
2021/09/23 01:04:13;;;;;;;80.30;41.03;;;;;;;;;;5041545;28;20060;-85
2021/09/23 01:06:40;;;;;;;70.22;39.97;;;;;;;;;;5041772;28;20096;-84
2021/09/23 01:09:10;;;;;;;73.78;38.95;;;;;;;;;;5042401;28;20109;-85
2021/09/23 01:11:36;;;;;;;79.72;40.95;;;;;;;;;;5041664;28;20084;-85
2021/09/23 01:14:03;;;;;;;68.78;39.47;;;;;;;;;;5042930;28;20049;-86
2021/09/23 01:16:30;;;;;;;73.53;40.47;;;;;;;;;;5042218;28;20058;-84
2021/09/23 01:18:57;;;;;;;71.05;39.10;;;;;;;;;;5041945;28;20148;-84
2021/09/23 01:21:24;;;;;;;75.28;42.03;;;;;;;;;;5041525;28;20049;-84
2021/09/23 01:23:50;;;;;;;71.93;40.65;;;;;;;;;;5041610;28;20309;-84
2021/09/23 01:26:19;;;;;;;77.90;42.42;;;;;;;;;;5042977;28;20329;-84
2021/09/23 01:28:47;;;;;;;77.88;42.10;;;;;;;;;;5042322;28;20056;-84
2021/09/23 01:31:14;;;;;;;80.15;40.88;;;;;;;;;;5042869;28;20069;-84
2021/09/23 01:33:40;;;;;;;73.63;42.10;;;;;;;;;;5041258;28;20049;-84
2021/09/23 01:36:07;;;;;;;78.95;40.85;;;;;;;;;;5042223;28;20060;-84
2021/09/23 01:38:35;;;;;;;77.55;43.50;;;;;;;;;;5040511;28;20080;-84
2021/09/23 01:41:02;;;;;;;80.03;43.55;;;;;;;;;;5041165;28;20508;-85
2021/09/23 01:43:29;;;;;;;83.05;44.75;;;;;;;;;;5040705;28;20046;-84
2021/09/23 01:45:55;;;;;;;78.38;43.35;;;;;;;;;;5042731;28;20452;-84
2021/09/23 01:48:22;;;;;;;89.82;45.83;;;;;;;;;;5044662;28;20061;-84
2021/09/23 01:50:50;;;;;;;87.55;44.65;;;;;;;;;;5046077;28;20050;-84
2021/09/23 01:53:17;;;;;;;84.65;46.35;;;;;;;;;;5045938;28;20480;-84
2021/09/23 01:55:44;;;;;;;76.82;43.58;;;;;;;;;;5042800;28;20050;-84
2021/09/23 01:58:10;;;;;;;81.25;43.45;;;;;;;;;;5050088;28;20068;-84
2021/09/23 02:00:37;;;;;;;83.07;43.17;;;;;;;;;;5051145;28;20405;-84
2021/09/23 02:03:07;;;;;;;88.70;45.17;;;;;;;;;;5043659;28;20045;-84
2021/09/23 02:05:34;;;;;;;84.32;44.10;;;;;;;;;;5039255;28;20064;-84
2021/09/23 02:08:01;;;;;;;90.03;44.55;;;;;;;;;;5040065;28;20168;-84
2021/09/23 02:10:34;;;;;;;87.53;44.20;;;;;;;;;;5039715;28;20060;-84
2021/09/23 02:13:01;;;;;;;85.45;44.50;;;;;;;;;;5039813;28;20437;-84
2021/09/23 02:15:30;;;;;;;90.50;44.72;;;;;;;;;;5040104;28;20050;-86
2021/09/23 02:17:59;;;;;;;86.13;42.83;;;;;;;;;;5038571;28;20080;-85
2021/09/23 02:20:26;;;;;;;86.95;44.33;;;;;;;;;;5040209;28;20049;-84
2021/09/23 02:22:52;;;;;;;80.85;43.75;;;;;;;;;;5041795;28;20050;-84
2021/09/23 02:25:19;;;;;;;84.43;43.42;;;;;;;;;;5040661;28;20054;-84
2021/09/23 02:27:46;;;;;;;74.43;42.15;;;;;;;;;;5041019;28;20080;-84
2021/09/23 02:30:13;;;;;;;78.30;42.10;;;;;;;;;;5041864;28;20133;-84
2021/09/23 02:32:41;;;;;;;88.13;43.30;;;;;;;;;;5044088;28;20465;-84
2021/09/23 02:35:09;;;;;;;79.07;42.55;;;;;;;;;;5061176;28;20341;-84
2021/09/23 02:37:36;;;;;;;82.13;44.60;;;;;;;;;;5059481;28;20045;-84
2021/09/23 02:40:09;;;;;;;77.05;41.10;;;;;;;;;;5059698;28;20509;-85
2021/09/23 02:42:36;;;;;;;85.75;42.03;;;;;;;;;;5058572;28;20139;-83
2021/09/23 02:45:04;;;;;;;83.95;41.47;;;;;;;;;;5059772;28;20348;-84
2021/09/23 02:47:31;;;;;;;77.35;42.95;;;;;;;;;;5061248;28;20279;-85
2021/09/23 02:49:58;;;;;;;86.43;45.53;;;;;;;;;;5059303;28;20064;-85
2021/09/23 02:52:25;;;;;;;80.47;42.40;;;;;;;;;;5060294;28;20053;-85
2021/09/23 02:54:51;;;;;;;86.40;43.40;;;;;;;;;;5061260;28;20406;-85
2021/09/23 02:57:21;;;;;;;85.15;44.13;;;;;;;;;;5066463;28;20063;-85
2021/09/23 02:59:48;;;;;;;84.70;41.75;;;;;;;;;;5073337;28;20063;-84
2021/09/23 03:02:15;;;;;;;80.65;41.40;;;;;;;;;;5068020;28;20186;-85
2021/09/23 03:04:45;;;;;;;80.85;42.47;;;;;;;;;;5058310;28;20059;-85
2021/09/23 03:07:12;;;;;;;86.47;42.45;;;;;;;;;;5057200;28;20048;-85
2021/09/23 03:09:39;;;;;;;71.78;40.60;;;;;;;;;;5066982;28;20393;-85
2021/09/23 03:12:06;;;;;;;83.30;43.33;;;;;;;;;;5050312;28;20101;-85
2021/09/23 03:14:33;;;;;;;75.25;41.40;;;;;;;;;;5046457;28;20045;-84
2021/09/23 03:17:00;;;;;;;83.68;42.08;;;;;;;;;;5056085;28;20072;-84
2021/09/23 03:19:27;;;;;;;86.75;41.70;;;;;;;;;;5037183;28;20057;-84
2021/09/23 03:21:55;;;;;;;85.57;43.38;;;;;;;;;;5037555;28;20053;-84
2021/09/23 03:24:21;;;;;;;76.25;40.10;;;;;;;;;;5037401;28;20312;-84
2021/09/23 03:26:48;;;;;;;78.43;41.22;;;;;;;;;;5037625;28;20309;-84
2021/09/23 03:29:18;;;;;;;80.35;40.10;;;;;;;;;;5051918;28;20058;-84
2021/09/23 03:31:45;;;;;;;73.03;37.53;;;;;;;;;;5037334;28;20049;-84
2021/09/23 03:34:12;;;;;;;79.15;38.55;;;;;;;;;;5036798;28;20076;-85
2021/09/23 03:36:38;;;;;;;76.28;37.88;;;;;;;;;;5044447;28;20394;-83
2021/09/23 03:39:06;;;;;;;69.20;37.33;;;;;;;;;;5058674;28;20055;-84
2021/09/23 03:41:33;;;;;;;65.65;35.83;;;;;;;;;;5055186;28;20045;-85
2021/09/23 03:44:00;;;;;;;65.50;35.17;;;;;;;;;;5035250;28;20620;-84
2021/09/23 03:46:27;;;;;;;68.13;34.58;;;;;;;;;;5037408;28;20064;-85
2021/09/23 03:48:54;;;;;;;65.18;33.45;;;;;;;;;;5038337;28;20372;-84
2021/09/23 03:51:21;;;;;;;66.38;34.42;;;;;;;;;;5035918;28;20140;-84
2021/09/23 03:53:51;;;;;;;60.33;33.90;;;;;;;;;;5036309;28;20049;-85
2021/09/23 03:56:18;;;;;;;62.17;34.17;;;;;;;;;;5035329;28;20056;-85
2021/09/23 03:58:45;;;;;;;59.47;32.90;;;;;;;;;;5034265;28;20049;-85
2021/09/23 04:01:15;;;;;;;63.17;31.85;;;;;;;;;;5036438;28;20417;-84
2021/09/23 04:03:43;;;;;;;59.03;32.40;;;;;;;;;;5045029;28;20322;-84
2021/09/23 04:06:10;;;;;;;62.90;33.80;;;;;;;;;;5051460;28;20040;-85
2021/09/23 04:08:37;;;;;;;58.60;33.97;;;;;;;;;;5063122;28;20049;-83
2021/09/23 04:11:04;;;;;;;61.15;31.13;;;;;;;;;;5041138;28;20120;-84
2021/09/23 04:13:30;;;;;;;67.40;34.53;;;;;;;;;;5058264;28;20159;-83
2021/09/23 04:15:57;;;;;;;55.42;32.45;;;;;;;;;;5048759;28;20046;-84
2021/09/23 04:18:24;;;;;;;60.53;31.98;;;;;;;;;;5069164;28;20166;-84
2021/09/23 04:20:50;;;;;;;64.90;33.42;;;;;;;;;;5038051;28;20056;-84
2021/09/23 04:23:17;;;;;;;61.53;31.73;;;;;;;;;;5040367;28;20045;-83
2021/09/23 04:25:44;;;;;;;51.88;30.10;;;;;;;;;;5047577;28;20105;-83
2021/09/23 04:28:11;;;;;;;57.38;31.83;;;;;;;;;;5043599;28;20214;-84
2021/09/23 04:30:38;;;;;;;54.50;30.60;;;;;;;;;;5050108;28;20073;-84
2021/09/23 04:33:05;;;;;;;55.33;30.15;;;;;;;;;;5050914;28;20037;-86
2021/09/23 04:35:32;;;;;;;53.45;30.90;;;;;;;;;;5051718;28;20076;-85
2021/09/23 04:37:59;;;;;;;55.38;30.15;;;;;;;;;;5050983;28;20114;-84
2021/09/23 04:40:26;;;;;;;51.28;29.15;;;;;;;;;;5053614;28;20080;-85
2021/09/23 04:42:53;;;;;;;52.30;30.27;;;;;;;;;;5052250;28;20037;-85
2021/09/23 04:45:22;;;;;;;54.58;29.63;;;;;;;;;;5052324;28;20041;-85
2021/09/23 04:47:49;;;;;;;54.53;28.30;;;;;;;;;;5044990;28;20136;-86
2021/09/23 04:50:22;;;;;;;55.72;29.00;;;;;;;;;;5049336;28;20060;-84
2021/09/23 04:52:49;;;;;;;63.35;29.60;;;;;;;;;;5055900;28;20083;-84
2021/09/23 04:55:19;;;;;;;50.50;28.77;;;;;;;;;;5048111;28;20057;-84
2021/09/23 04:57:49;;;;;;;54.38;29.25;;;;;;;;;;5056584;28;20041;-84
2021/09/23 05:00:16;;;;;;;52.35;29.50;;;;;;;;;;5070007;28;20559;-84
2021/09/23 05:02:43;;;;;;;61.53;29.08;;;;;;;;;;5062300;28;20055;-84
2021/09/23 05:05:13;;;;;;;56.55;30.20;;;;;;;;;;5060423;28;20063;-85
2021/09/23 05:07:40;;;;;;;54.72;29.02;;;;;;;;;;5059471;28;20130;-85
2021/09/23 05:10:07;;;;;;;58.85;30.50;;;;;;;;;;5060284;28;20045;-82
2021/09/23 05:12:35;;;;;;;54.78;28.90;;;;;;;;;;5068617;28;20102;-85
2021/09/23 05:15:02;;;;;;;52.00;30.42;;;;;;;;;;5049883;28;20072;-83
2021/09/23 05:17:29;;;;;;;47.88;26.65;;;;;;;;;;5058818;28;20432;-83
2021/09/23 05:19:59;;;;;;;52.72;27.58;;;;;;;;;;5059065;28;20243;-84
2021/09/23 05:22:29;;;;;;;52.03;29.38;;;;;;;;;;5061792;28;20069;-82
2021/09/23 05:25:00;;;;;;;52.92;28.80;;;;;;;;;;5054817;28;20352;-83
2021/09/23 05:27:33;;;;;;;59.20;31.48;;;;;;;;;;5042833;28;20049;-82
2021/09/23 05:30:00;;;;;;;52.38;28.23;;;;;;;;;;5055999;28;20101;-83
2021/09/23 05:32:27;;;;;;;59.85;29.65;;;;;;;;;;5065529;28;20075;-83
2021/09/23 05:34:54;;;;;;;54.55;29.90;;;;;;;;;;5061719;28;20061;-83
2021/09/23 05:37:22;;;;;;;57.15;29.17;;;;;;;;;;5047392;28;20109;-83
2021/09/23 05:39:53;;;;;;;48.13;27.40;;;;;;;;;;5046991;28;20052;-82
2021/09/23 05:42:26;;;;;;;53.88;29.60;;;;;;;;;;5056357;28;20049;-84
2021/09/23 05:44:53;;;;;;;52.63;29.63;;;;;;;;;;5044694;28;20049;-83
2021/09/23 05:47:22;;;;;;;58.13;30.95;;;;;;;;;;5056272;28;20045;-83
2021/09/23 05:49:49;;;;;;;53.83;28.73;;;;;;;;;;5052667;28;20157;-83
2021/09/23 05:52:22;;;;;;;51.67;29.00;;;;;;;;;;5050211;28;20223;-83
2021/09/23 05:54:49;;;;;;;55.45;28.95;;;;;;;;;;5050402;28;20303;-82
2021/09/23 05:57:20;;;;;;;52.20;29.10;;;;;;;;;;5052555;28;20072;-83
2021/09/23 05:59:51;;;;;;;51.25;27.73;;;;;;;;;;5039854;28;20208;-83
2021/09/23 06:02:18;;;;;;;57.45;28.30;;;;;;;;;;5033883;28;20053;-82
2021/09/23 06:04:46;;;;;;;47.15;27.17;;;;;;;;;;5045860;28;20048;-83
2021/09/23 06:07:24;;;;;;;48.45;26.50;;;;;;;;;;5047620;28;20087;-82
2021/09/23 06:09:56;;;;;;;47.13;26.65;;;;;;;;;;5037659;28;20046;-83
2021/09/23 06:12:30;;;;;;;45.38;26.27;;;;;;;;;;5036721;28;20308;-82
2021/09/23 06:15:00;;;;;;;42.75;26.83;;;;;;;;;;5038932;28;20049;-83
2021/09/23 06:17:30;;;;;;;49.83;25.50;;;;;;;;;;5039738;28;20061;-84
2021/09/23 06:19:57;;;;;;;44.65;26.55;;;;;;;;;;5036426;28;20050;-83
2021/09/23 06:22:28;;;;;;;44.05;25.17;;;;;;;;;;5038503;28;20060;-83
2021/09/23 06:24:56;;;;;;;47.22;26.33;;;;;;;;;;5053320;28;20049;-83
2021/09/23 06:27:23;;;;;;;45.08;25.85;;;;;;;;;;5037289;28;20189;-83
2021/09/23 06:29:50;;;;;;;47.20;27.73;;;;;;;;;;5038527;28;20053;-84
2021/09/23 06:32:19;;;;;;;39.67;24.92;;;;;;;;;;5037792;28;20061;-82
2021/09/23 06:34:56;;;;;;;42.97;25.75;;;;;;;;;;5036058;28;20121;-82
2021/09/23 06:37:40;;;;;;;47.20;26.77;;;;;;;;;;5037120;28;20100;-82
2021/09/23 06:40:10;;;;;;;49.33;26.73;;;;;;;;;;5052190;28;20060;-82
2021/09/23 06:42:38;;;;;;;46.47;26.42;;;;;;;;;;5039828;28;20045;-82
2021/09/23 06:45:05;;;;;;;48.53;26.52;;;;;;;;;;5058093;28;20331;-82
2021/09/23 06:47:32;;;;;;;45.28;26.20;;;;;;;;;;5059618;28;20049;-83
2021/09/23 06:50:06;;;;;;;42.85;25.70;;;;;;;;;;5043893;28;20087;-83
2021/09/23 06:52:43;;;;;;;46.55;28.38;;;;;;;;;;5056520;28;20059;-83
2021/09/23 06:55:11;;;;;;;50.63;28.95;;;;;;;;;;5054848;28;20110;-82
2021/09/23 06:57:38;;;;;;;52.35;27.17;;;;;;;;;;5043977;28;20387;-83
2021/09/23 07:00:06;;;;;;;49.88;28.33;;;;;;;;;;5030456;28;20045;-83
2021/09/23 07:02:33;;;;;;;47.08;26.60;;;;;;;;;;5030496;28;20112;-83
2021/09/23 07:05:01;;;;;;;48.78;28.00;;;;;;;;;;5048426;28;20110;-83
2021/09/23 07:07:28;;;;;;;48.80;26.58;;;;;;;;;;5053723;28;20048;-84
2021/09/23 07:10:00;;;;;;;43.40;26.67;;;;;;;;;;5054271;28;20047;-84
2021/09/23 07:12:27;;;;;;;47.50;28.65;;;;;;;;;;5054244;28;20087;-83
2021/09/23 07:14:57;;;;;;;40.60;26.35;;;;;;;;;;5057382;28;20111;-81
2021/09/23 07:17:26;;;;;;;45.08;27.48;;;;;;;;;;5057362;28;20285;-81
2021/09/23 07:19:57;;;;;;;43.22;26.90;;;;;;;;;;5056072;28;20099;-83
2021/09/23 07:22:24;;;;;;;45.45;26.92;;;;;;;;;;5059019;28;20072;-82
2021/09/23 07:24:59;;;;;;;44.75;27.38;;;;;;;;;;5066417;28;20041;-82
2021/09/23 07:27:26;;;;;;;47.75;27.98;;;;;;;;;;5054515;28;20100;-82
2021/09/23 07:29:53;;;;;;;50.05;27.20;;;;;;;;;;5032784;28;20287;-82
2021/09/23 07:32:22;;;;;;;43.05;25.80;;;;;;;;;;5033473;28;20064;-82
2021/09/23 07:34:52;;;;;;;44.30;26.60;;;;;;;;;;5042084;28;20130;-83
2021/09/23 07:37:19;;;;;;;44.13;25.38;;;;;;;;;;5061205;28;20057;-83
2021/09/23 07:40:04;;;;;;;45.13;26.70;;;;;;;;;;5055649;28;20128;-83
2021/09/23 07:42:31;;;;;;;39.13;23.55;;;;;;;;;;5052383;28;20227;-83
2021/09/23 07:44:58;;;;;;;39.10;24.25;;;;;;;;;;5067301;28;20229;-83
2021/09/23 07:47:25;;;;;;;48.83;22.75;;;;;;;;;;5048543;28;20237;-84
2021/09/23 07:49:52;;;;;;;40.70;21.60;;;;;;;;;;5030277;28;20397;-82
2021/09/23 07:52:19;;;;;;;33.17;21.23;;;;;;;;;;5031305;28;20049;-83
2021/09/23 07:54:47;;;;;;;34.05;20.75;;;;;;;;;;5032175;28;20259;-83
2021/09/23 07:57:18;;;;;;;33.65;20.27;;;;;;;;;;5052689;28;20059;-83
2021/09/23 07:59:47;;;;;;;31.25;20.35;;;;;;;;;;5039132;28;20049;-83
2021/09/23 08:02:15;;;;;;;30.70;20.35;;;;;;;;;;5033824;28;20054;-84
2021/09/23 08:04:42;;;;;;;30.58;20.10;;;;;;;;;;5032111;28;20494;-84
2021/09/23 08:07:12;;;;;;;38.90;20.95;;;;;;;;;;5032103;28;20425;-83
2021/09/23 08:09:42;;;;;;;28.40;18.85;;;;;;;;;;5047380;28;20187;-84
2021/09/23 08:12:22;;;;;;;29.85;18.92;;;;;;;;;;5056092;28;20046;-84
2021/09/23 08:14:51;;;;;;;28.30;18.90;;;;;;;;;;5039239;28;20234;-82
2021/09/23 08:17:20;;;;;;;30.13;18.83;;;;;;;;;;5043524;28;20215;-83
2021/09/23 08:19:52;;;;;;;29.90;19.75;;;;;;;;;;5060041;28;20092;-82
2021/09/23 08:22:19;;;;;;;31.63;19.98;;;;;;;;;;5057835;28;20083;-83
2021/09/23 08:24:46;;;;;;;32.50;20.80;;;;;;;;;;5071108;28;20068;-82
2021/09/23 08:27:14;;;;;;;36.88;20.05;;;;;;;;;;5069969;28;20071;-82
2021/09/23 08:29:43;;;;;;;30.55;20.02;;;;;;;;;;5072635;28;20055;-83
2021/09/23 08:32:10;;;;;;;29.33;19.20;;;;;;;;;;5068734;28;20264;-83
2021/09/23 08:34:37;;;;;;;35.72;19.73;;;;;;;;;;5071223;28;20407;-84
2021/09/23 08:37:04;;;;;;;28.60;17.60;;;;;;;;;;5057921;28;20075;-82
2021/09/23 08:39:31;;;;;;;31.13;18.92;;;;;;;;;;5052809;28;20060;-83
2021/09/23 08:41:57;;;;;;;28.10;19.08;;;;;;;;;;5049794;28;20152;-83
2021/09/23 08:44:31;;;;;;;32.63;19.13;;;;;;;;;;5049548;28;20260;-83
2021/09/23 08:47:01;;;;;;;34.70;20.42;;;;;;;;;;5049528;28;20075;-83
2021/09/23 08:49:30;;;;;;;32.50;20.02;;;;;;;;;;5047249;28;20353;-84
2021/09/23 08:51:59;;;;;;;28.75;18.90;;;;;;;;;;5047659;28;20107;-83
2021/09/23 08:54:26;;;;;;;37.75;19.90;;;;;;;;;;5048843;28;20201;-83
2021/09/23 08:57:01;;;;;;;38.85;20.65;;;;;;;;;;5043275;28;20432;-82
2021/09/23 08:59:31;;;;;;;34.58;18.88;;;;;;;;;;5047758;28;20076;-82
2021/09/23 09:02:05;;;;;;;30.48;18.52;;;;;;;;;;5050583;28;20143;-83
2021/09/23 09:04:39;;;;;;;34.63;19.98;;;;;;;;;;5058539;28;20048;-83
2021/09/23 09:07:08;;;;;;;37.70;20.73;;;;;;;;;;5060800;28;20049;-81
2021/09/23 09:09:35;;;;;;;39.13;21.02;;;;;;;;;;5063570;28;20041;-83
2021/09/23 09:12:29;;;;;;;39.42;21.83;;;;;;;;;;5060236;28;20068;-83
2021/09/23 09:14:58;;;;;;;36.85;22.02;;;;;;;;;;5062745;28;20084;-84
2021/09/23 09:17:37;;;;;;;37.03;21.02;;;;;;;;;;5065516;28;20057;-82
2021/09/23 09:20:06;;;;;;;41.95;22.63;;;;;;;;;;5064949;28;20056;-83
2021/09/23 09:22:34;;;;;;;38.35;21.08;;;;;;;;;;5056602;28;20049;-82
2021/09/23 09:25:04;;;;;;;36.75;20.67;;;;;;;;;;5056951;28;20244;-83
2021/09/23 09:27:44;;;;;;;39.78;20.75;;;;;;;;;;5053261;28;20053;-82
2021/09/23 09:30:14;;;;;;;42.08;20.67;;;;;;;;;;5051858;28;20052;-82
2021/09/23 09:32:44;;;;;;;41.85;20.98;;;;;;;;;;5052610;28;20114;-83
2021/09/23 09:35:23;;;;;;;41.63;20.38;;;;;;;;;;5051269;28;20060;-82
2021/09/23 09:37:51;;;;;;;31.88;19.58;;;;;;;;;;5053349;28;20060;-82
2021/09/23 09:40:19;;;;;;;30.15;19.50;;;;;;;;;;5051945;28;20052;-83
2021/09/23 09:42:47;;;;;;;37.63;18.25;;;;;;;;;;5051466;28;20179;-84
2021/09/23 09:45:21;;;;;;;37.13;18.65;;;;;;;;;;5055992;28;20053;-83
2021/09/23 09:47:53;;;;;;;37.75;17.10;;;;;;;;;;5053742;28;20251;-84
2021/09/23 09:50:24;;;;;;;32.78;17.88;;;;;;;;;;5049276;28;20063;-83
2021/09/23 09:53:05;;;;;;;25.70;16.30;;;;;;;;;;5052788;28;20068;-83
2021/09/23 09:55:36;;;;;;;29.67;17.05;;;;;;;;;;5051968;28;20049;-82
2021/09/23 09:58:06;;;;;;;21.95;14.20;;;;;;;;;;5051713;28;20048;-84
2021/09/23 10:00:33;;;;;;;26.92;16.00;;;;;;;;;;5051268;28;20312;-83
2021/09/23 10:03:03;;;;;;;24.63;14.63;;;;;;;;;;5043832;28;20221;-83
2021/09/23 10:05:30;;;;;;;23.38;12.75;;;;;;;;;;5051417;28;20057;-83
2021/09/23 10:08:05;;;;;;;27.52;13.07;;;;;;;;;;5046252;28;20053;-83
2021/09/23 10:10:33;;;;;;;23.33;11.73;;;;;;;;;;5040681;28;20072;-82
2021/09/23 10:13:01;;;;;;;21.35;12.00;;;;;;;;;;5030122;28;20049;-82
2021/09/23 10:15:35;;;;;;;17.75;10.57;;;;;;;;;;5030365;28;20061;-83
2021/09/23 10:18:04;;;;;;;19.92;10.93;;;;;;;;;;5030728;28;20413;-83
2021/09/23 10:20:32;;;;;;;16.42;9.60;;;;;;;;;;5033509;28;20054;-84
2021/09/23 10:23:00;;;;;;;17.35;10.00;;;;;;;;;;5032209;28;20041;-83
2021/09/23 10:25:32;;;;;;;15.70;9.27;;;;;;;;;;5041699;28;20144;-83
2021/09/23 10:28:03;;;;;;;15.23;9.23;;;;;;;;;;5063827;28;20049;-82
2021/09/23 10:30:35;;;;;;;19.27;9.48;;;;;;;;;;5065983;28;20061;-82
2021/09/23 10:33:03;;;;;;;16.40;8.85;;;;;;;;;;5050839;28;20045;-82
2021/09/23 10:35:31;;;;;;;17.08;9.40;;;;;;;;;;5053435;28;20330;-83
2021/09/23 10:38:05;;;;;;;14.73;8.32;;;;;;;;;;5037128;28;20050;-83
2021/09/23 10:40:34;;;;;;;21.08;9.10;;;;;;;;;;5061157;28;20044;-83
2021/09/23 10:43:05;;;;;;;16.20;8.43;;;;;;;;;;5065243;28;20041;-84
2021/09/23 10:45:34;;;;;;;20.27;9.27;;;;;;;;;;5057720;28;20049;-81
2021/09/23 10:48:03;;;;;;;13.57;8.52;;;;;;;;;;5051166;28;20037;-84
2021/09/23 10:50:31;;;;;;;20.13;9.65;;;;;;;;;;5048976;28;20045;-82
2021/09/23 10:52:59;;;;;;;20.17;9.52;;;;;;;;;;5045838;28;20095;-83
2021/09/23 10:55:27;;;;;;;14.00;8.70;;;;;;;;;;5044769;28;20053;-82
2021/09/23 10:57:55;;;;;;;16.15;10.32;;;;;;;;;;5062517;28;20037;-82
2021/09/23 11:00:27;;;;;;;16.77;10.13;;;;;;;;;;5039969;28;20049;-83
2021/09/23 11:02:54;;;;;;;19.38;10.35;;;;;;;;;;5031752;28;20289;-83
2021/09/23 11:05:22;;;;;;;20.42;10.25;;;;;;;;;;5048988;28;20507;-83
2021/09/23 11:07:50;;;;;;;18.33;9.52;;;;;;;;;;5049955;28;20374;-83
2021/09/23 11:10:19;;;;;;;16.63;9.98;;;;;;;;;;5048988;28;20132;-83
2021/09/23 11:12:48;;;;;;;17.95;9.25;;;;;;;;;;5048522;28;20501;-83
2021/09/23 11:15:19;;;;;;;19.83;10.30;;;;;;;;;;5048905;28;20053;-82
2021/09/23 11:17:47;;;;;;;18.88;9.23;;;;;;;;;;5052129;28;20052;-83
2021/09/23 11:20:31;;;;;;;17.98;9.18;;;;;;;;;;5050541;28;20049;-84
2021/09/23 11:23:00;;;;;;;19.25;10.13;;;;;;;;;;5050050;28;20311;-83
2021/09/23 11:25:31;;;;;;;17.55;9.50;;;;;;;;;;5046427;28;20045;-83
2021/09/23 11:27:58;;;;;;;18.15;9.95;;;;;;;;;;5046230;28;20055;-84
2021/09/23 11:30:30;;;;;;;20.67;10.57;;;;;;;;;;5044003;28;20135;-84
2021/09/23 11:33:06;;;;;;;18.23;9.13;;;;;;;;;;5048164;28;20099;-82
2021/09/23 11:35:39;;;;;;;16.17;8.82;;;;;;;;;;5048880;28;20057;-84
2021/09/23 11:38:08;;;;;;;15.73;8.50;;;;;;;;;;5052016;28;20076;-83
2021/09/23 11:40:37;;;;;;;18.02;9.18;;;;;;;;;;5051095;28;20112;-84
2021/09/23 11:43:06;;;;;;;16.65;9.02;;;;;;;;;;5058256;28;20033;-82
2021/09/23 11:45:34;;;;;;;15.38;8.90;;;;;;;;;;5050329;28;20437;-82
2021/09/23 11:48:07;;;;;;;16.25;8.85;;;;;;;;;;5049015;28;20045;-83
2021/09/23 11:50:39;;;;;;;15.05;8.80;;;;;;;;;;5050104;28;20125;-83
2021/09/23 11:53:23;;;;;;;17.65;9.57;;;;;;;;;;5053205;28;20478;-84
2021/09/23 11:55:55;;;;;;;18.83;10.07;;;;;;;;;;5047311;28;20056;-82
2021/09/23 11:58:22;;;;;;;19.50;9.70;;;;;;;;;;5044467;28;20504;-83
2021/09/23 12:00:50;;;;;;;16.27;9.32;;;;;;;;;;5045394;28;20464;-83
2021/09/23 12:03:23;;;;;;;14.25;9.13;;;;;;;;;;5044031;28;20095;-83
2021/09/23 12:05:51;;;;;;;15.68;9.55;;;;;;;;;;5063560;28;20142;-83
2021/09/23 12:08:19;;;;;;;17.20;8.95;;;;;;;;;;5051751;28;20045;-83
2021/09/23 12:10:50;;;;;;;14.18;8.38;;;;;;;;;;5045573;28;20108;-82
2021/09/23 12:13:36;;;;;;;13.70;8.05;;;;;;;;;;5050238;28;20303;-83
2021/09/23 12:16:06;;;;;;;14.23;9.23;;;;;;;;;;5050714;28;20199;-83
2021/09/23 12:18:33;;;;;;;20.67;8.43;;;;;;;;;;5055714;28;20243;-83
2021/09/23 12:21:11;;;;;;;21.45;10.30;;;;;;;;;;5055938;28;20041;-83
2021/09/23 12:23:45;;;;;;;15.93;9.02;;;;;;;;;;5055661;28;20041;-82
2021/09/23 12:26:12;;;;;;;17.23;7.82;;;;;;;;;;5054349;28;20116;-83
2021/09/23 12:28:47;;;;;;;17.05;8.27;;;;;;;;;;5047806;28;20336;-83
2021/09/23 12:31:15;;;;;;;15.13;8.52;;;;;;;;;;5046023;28;20538;-81
2021/09/23 12:33:53;;;;;;;18.30;8.45;;;;;;;;;;5047115;28;20083;-83
2021/09/23 12:36:29;;;;;;;16.60;7.90;;;;;;;;;;5040995;28;20228;-83
2021/09/23 12:39:06;;;;;;;14.48;7.57;;;;;;;;;;5031002;28;20076;-81
2021/09/23 12:41:36;;;;;;;12.70;7.10;;;;;;;;;;5027994;28;20208;-81
2021/09/23 12:44:07;;;;;;;11.70;7.18;;;;;;;;;;5045030;28;20048;-82
2021/09/23 12:46:35;;;;;;;13.30;7.22;;;;;;;;;;5036653;28;20083;-82
2021/09/23 12:49:19;;;;;;;18.65;7.63;;;;;;;;;;5027431;28;20143;-82
2021/09/23 12:51:48;;;;;;;11.98;5.93;;;;;;;;;;5019534;28;20149;-84
2021/09/23 12:54:20;;;;;;;17.27;6.63;;;;;;;;;;5043374;28;20106;-82
2021/09/23 12:57:02;;;;;;;9.32;6.00;;;;;;;;;;5031164;28;20048;-81
2021/09/23 12:59:30;;;;;;;13.60;6.82;;;;;;;;;;5046635;28;20045;-82
2021/09/23 13:02:15;;;;;;;18.08;7.15;;;;;;;;;;5047428;28;20041;-82
2021/09/23 13:04:42;;;;;;;14.13;6.70;;;;;;;;;;5040349;28;20055;-82
2021/09/23 13:07:20;;;;;;;14.70;5.18;;;;;;;;;;5043991;28;20242;-83
2021/09/23 13:10:02;;;;;;;10.75;5.45;;;;;;;;;;5042231;28;20292;-82
2021/09/23 13:12:40;;;;;;;16.20;6.50;;;;;;;;;;5044654;28;20220;-82
2021/09/23 13:15:13;;;;;;;13.18;5.90;;;;;;;;;;5044625;28;20316;-82
2021/09/23 13:17:41;;;;;;;14.95;7.03;;;;;;;;;;5047308;28;20061;-82
2021/09/23 13:20:08;;;;;;;12.32;6.07;;;;;;;;;;5046528;28;20053;-83
2021/09/23 13:22:38;;;;;;;10.40;5.43;;;;;;;;;;5041624;28;20076;-82
2021/09/23 13:25:07;;;;;;;12.23;5.80;;;;;;;;;;5045680;28;20286;-82
2021/09/23 13:27:34;;;;;;;9.35;5.55;;;;;;;;;;5048905;28;20076;-83
2021/09/23 13:30:03;;;;;;;13.93;5.65;;;;;;;;;;5045568;28;20337;-83
2021/09/23 13:32:30;;;;;;;15.60;5.57;;;;;;;;;;5033597;28;20049;-81
2021/09/23 13:34:57;;;;;;;15.00;4.75;;;;;;;;;;5031955;28;20242;-82
2021/09/23 13:37:26;;;;;;;9.40;4.25;;;;;;;;;;5036785;28;20052;-83
2021/09/23 13:39:53;;;;;;;10.77;4.95;;;;;;;;;;5047527;28;20079;-82
2021/09/23 13:42:20;;;;;;;7.90;4.15;;;;;;;;;;5045575;28;20073;-82
2021/09/23 13:44:47;;;;;;;6.97;3.75;;;;;;;;;;5038107;28;20055;-82
2021/09/23 13:47:15;;;;;;;10.05;3.30;;;;;;;;;;5026616;28;20546;-81
2021/09/23 13:49:42;;;;;;;7.25;3.13;;;;;;;;;;5045381;28;20557;-82
2021/09/23 13:52:09;;;;;;;8.00;2.75;;;;;;;;;;5047285;28;20134;-82
2021/09/23 13:54:37;;;;;;;8.05;2.70;;;;;;;;;;5046295;28;20192;-82
2021/09/23 13:57:04;;;;;;;10.13;2.53;;;;;;;;;;5045587;28;20052;-83
2021/09/23 13:59:31;;;;;;;8.27;3.15;;;;;;;;;;5045943;28;20080;-83
2021/09/23 14:02:03;;;;;;;9.48;2.40;;;;;;;;;;5048632;28;20074;-82
2021/09/23 14:04:31;;;;;;;11.13;2.65;;;;;;;;;;5050003;28;20335;-82
2021/09/23 14:07:04;;;;;;;6.32;2.50;;;;;;;;;;5048940;28;20511;-81
2021/09/23 14:09:33;;;;;;;8.52;2.45;;;;;;;;;;5053862;28;20119;-83
2021/09/23 14:12:01;;;;;;;7.72;2.10;;;;;;;;;;5059180;28;20121;-82
2021/09/23 14:14:28;;;;;;;6.75;1.73;;;;;;;;;;5033796;28;20659;-82
2021/09/23 14:16:56;;;;;;;7.90;2.20;;;;;;;;;;5033396;28;20057;-83
2021/09/23 14:19:23;;;;;;;8.80;2.10;;;;;;;;;;5041177;28;20112;-83
2021/09/23 14:21:51;;;;;;;6.30;1.98;;;;;;;;;;5046118;28;20055;-82
2021/09/23 14:24:18;;;;;;;4.10;1.92;;;;;;;;;;5043886;28;20049;-83
2021/09/23 14:26:46;;;;;;;6.93;1.90;;;;;;;;;;5044019;28;20270;-82
2021/09/23 14:29:14;;;;;;;6.03;2.10;;;;;;;;;;5042619;28;20144;-83
2021/09/23 14:31:44;;;;;;;3.92;1.88;;;;;;;;;;5024196;28;20095;-81
2021/09/23 14:34:12;;;;;;;10.15;2.05;;;;;;;;;;5022650;28;20245;-82